sensor_id;sensor_type;location;lat;lon;timestamp;P1;P2;P0
75946;PMS5003;64628;50.104;14.614;2023-11-21T00:00:25;29;29;
75946;PMS5003;64628;50.104;14.614;2023-11-21T00:02:50;39;38;
75946;PMS5003;64628;50.104;14.614;2023-11-21T00:05:16;25;25;
75946;PMS5003;64628;50.104;14.614;2023-11-21T00:07:41;68;63;
75946;PMS5003;64628;50.104;14.614;2023-11-21T00:10:07;39;32;
75946;PMS5003;64628;50.104;14.614;2023-11-21T00:12:32;35;29;
75946;PMS5003;64628;50.104;14.614;2023-11-21T00:14:57;41;34;
75946;PMS5003;64628;50.104;14.614;2023-11-21T00:17:22;32;30;
75946;PMS5003;64628;50.104;14.614;2023-11-21T00:19:47;33;27;
75946;PMS5003;64628;50.104;14.614;2023-11-21T00:22:13;24;18;
75946;PMS5003;64628;50.104;14.614;2023-11-21T00:24:38;32;32;
75946;PMS5003;64628;50.104;14.614;2023-11-21T00:27:04;53;49;
75946;PMS5003;64628;50.104;14.614;2023-11-21T00:29:29;30;26;
75946;PMS5003;64628;50.104;14.614;2023-11-21T00:31:54;52;50;
75946;PMS5003;64628;50.104;14.614;2023-11-21T00:34:20;54;46;
75946;PMS5003;64628;50.104;14.614;2023-11-21T00:36:45;49;46;
75946;PMS5003;64628;50.104;14.614;2023-11-21T00:39:10;39;39;
75946;PMS5003;64628;50.104;14.614;2023-11-21T00:41:36;43;37;
75946;PMS5003;64628;50.104;14.614;2023-11-21T00:44:01;47;45;
75946;PMS5003;64628;50.104;14.614;2023-11-21T00:46:26;38;32;
75946;PMS5003;64628;50.104;14.614;2023-11-21T00:48:52;46;41;
75946;PMS5003;64628;50.104;14.614;2023-11-21T00:51:17;37;35;
75946;PMS5003;64628;50.104;14.614;2023-11-21T00:53:43;33;28;
75946;PMS5003;64628;50.104;14.614;2023-11-21T00:56:08;42;38;
75946;PMS5003;64628;50.104;14.614;2023-11-21T00:58:34;24;21;
75946;PMS5003;64628;50.104;14.614;2023-11-21T01:00:59;30;25;
75946;PMS5003;64628;50.104;14.614;2023-11-21T01:03:24;41;37;
75946;PMS5003;64628;50.104;14.614;2023-11-21T01:05:50;56;53;
75946;PMS5003;64628;50.104;14.614;2023-11-21T01:08:16;33;31;
75946;PMS5003;64628;50.104;14.614;2023-11-21T01:10:41;36;30;
75946;PMS5003;64628;50.104;14.614;2023-11-21T01:13:07;40;38;
75946;PMS5003;64628;50.104;14.614;2023-11-21T01:15:33;47;45;
75946;PMS5003;64628;50.104;14.614;2023-11-21T01:17:58;34;31;
75946;PMS5003;64628;50.104;14.614;2023-11-21T01:20:23;30;30;
75946;PMS5003;64628;50.104;14.614;2023-11-21T01:22:49;29;27;
75946;PMS5003;64628;50.104;14.614;2023-11-21T01:25:14;51;51;
75946;PMS5003;64628;50.104;14.614;2023-11-21T01:27:39;27;27;
75946;PMS5003;64628;50.104;14.614;2023-11-21T01:30:05;27;26;
75946;PMS5003;64628;50.104;14.614;2023-11-21T01:32:30;41;40;
75946;PMS5003;64628;50.104;14.614;2023-11-21T01:34:55;48;44;
75946;PMS5003;64628;50.104;14.614;2023-11-21T01:37:20;63;62;
75946;PMS5003;64628;50.104;14.614;2023-11-21T01:39:45;29;27;
75946;PMS5003;64628;50.104;14.614;2023-11-21T01:42:11;45;42;
75946;PMS5003;64628;50.104;14.614;2023-11-21T01:44:37;32;30;
75946;PMS5003;64628;50.104;14.614;2023-11-21T01:47:02;34;29;
75946;PMS5003;64628;50.104;14.614;2023-11-21T01:49:27;34;28;
75946;PMS5003;64628;50.104;14.614;2023-11-21T01:51:52;20;20;
75946;PMS5003;64628;50.104;14.614;2023-11-21T01:54:18;48;47;
75946;PMS5003;64628;50.104;14.614;2023-11-21T01:56:43;42;41;
75946;PMS5003;64628;50.104;14.614;2023-11-21T01:59:09;36;34;
75946;PMS5003;64628;50.104;14.614;2023-11-21T02:01:34;29;28;
75946;PMS5003;64628;50.104;14.614;2023-11-21T02:04:00;52;42;
75946;PMS5003;64628;50.104;14.614;2023-11-21T02:06:25;79;71;
75946;PMS5003;64628;50.104;14.614;2023-11-21T02:08:51;111;78;
75946;PMS5003;64628;50.104;14.614;2023-11-21T02:11:15;93;77;
75946;PMS5003;64628;50.104;14.614;2023-11-21T02:13:41;46;40;
75946;PMS5003;64628;50.104;14.614;2023-11-21T02:16:07;53;53;
75946;PMS5003;64628;50.104;14.614;2023-11-21T02:18:32;52;46;
75946;PMS5003;64628;50.104;14.614;2023-11-21T02:20:57;45;42;
75946;PMS5003;64628;50.104;14.614;2023-11-21T02:23:23;48;45;
75946;PMS5003;64628;50.104;14.614;2023-11-21T02:25:48;26;24;
75946;PMS5003;64628;50.104;14.614;2023-11-21T02:28:13;48;42;
75946;PMS5003;64628;50.104;14.614;2023-11-21T02:30:39;47;44;
75946;PMS5003;64628;50.104;14.614;2023-11-21T02:33:04;37;35;
75946;PMS5003;64628;50.104;14.614;2023-11-21T02:35:30;36;36;
75946;PMS5003;64628;50.104;14.614;2023-11-21T02:37:56;38;37;
75946;PMS5003;64628;50.104;14.614;2023-11-21T02:40:22;26;26;
75946;PMS5003;64628;50.104;14.614;2023-11-21T02:42:47;42;41;
75946;PMS5003;64628;50.104;14.614;2023-11-21T02:45:13;43;41;
75946;PMS5003;64628;50.104;14.614;2023-11-21T02:47:38;51;49;
75946;PMS5003;64628;50.104;14.614;2023-11-21T02:50:04;42;40;
75946;PMS5003;64628;50.104;14.614;2023-11-21T02:52:29;52;46;
75946;PMS5003;64628;50.104;14.614;2023-11-21T02:54:54;53;52;
75946;PMS5003;64628;50.104;14.614;2023-11-21T02:57:20;68;63;
75946;PMS5003;64628;50.104;14.614;2023-11-21T02:59:45;40;38;
75946;PMS5003;64628;50.104;14.614;2023-11-21T03:02:11;50;46;
75946;PMS5003;64628;50.104;14.614;2023-11-21T03:04:36;67;65;
75946;PMS5003;64628;50.104;14.614;2023-11-21T03:07:02;82;79;
75946;PMS5003;64628;50.104;14.614;2023-11-21T03:09:27;80;73;
75946;PMS5003;64628;50.104;14.614;2023-11-21T03:11:53;105;90;
75946;PMS5003;64628;50.104;14.614;2023-11-21T03:14:18;103;92;
75946;PMS5003;64628;50.104;14.614;2023-11-21T03:16:44;83;74;
75946;PMS5003;64628;50.104;14.614;2023-11-21T03:19:10;68;63;
75946;PMS5003;64628;50.104;14.614;2023-11-21T03:21:35;76;73;
75946;PMS5003;64628;50.104;14.614;2023-11-21T03:24:01;61;61;
75946;PMS5003;64628;50.104;14.614;2023-11-21T03:26:27;80;79;
75946;PMS5003;64628;50.104;14.614;2023-11-21T03:28:52;68;65;
75946;PMS5003;64628;50.104;14.614;2023-11-21T03:31:18;36;36;
75946;PMS5003;64628;50.104;14.614;2023-11-21T03:33:44;32;29;
75946;PMS5003;64628;50.104;14.614;2023-11-21T03:36:09;34;33;
75946;PMS5003;64628;50.104;14.614;2023-11-21T03:38:34;28;28;
75946;PMS5003;64628;50.104;14.614;2023-11-21T03:41:00;47;46;
75946;PMS5003;64628;50.104;14.614;2023-11-21T03:43:25;30;30;
75946;PMS5003;64628;50.104;14.614;2023-11-21T03:45:51;36;35;
75946;PMS5003;64628;50.104;14.614;2023-11-21T03:48:16;35;34;
75946;PMS5003;64628;50.104;14.614;2023-11-21T03:50:41;35;32;
75946;PMS5003;64628;50.104;14.614;2023-11-21T03:53:07;35;34;
75946;PMS5003;64628;50.104;14.614;2023-11-21T03:55:32;35;35;
75946;PMS5003;64628;50.104;14.614;2023-11-21T03:57:57;34;31;
75946;PMS5003;64628;50.104;14.614;2023-11-21T04:00:23;51;49;
75946;PMS5003;64628;50.104;14.614;2023-11-21T04:02:48;90;83;
75946;PMS5003;64628;50.104;14.614;2023-11-21T04:05:14;76;71;
75946;PMS5003;64628;50.104;14.614;2023-11-21T04:07:39;88;82;
75946;PMS5003;64628;50.104;14.614;2023-11-21T04:10:06;85;85;
75946;PMS5003;64628;50.104;14.614;2023-11-21T04:12:31;83;80;
75946;PMS5003;64628;50.104;14.614;2023-11-21T04:14:56;73;72;
75946;PMS5003;64628;50.104;14.614;2023-11-21T04:17:22;72;72;
75946;PMS5003;64628;50.104;14.614;2023-11-21T04:19:47;91;91;
75946;PMS5003;64628;50.104;14.614;2023-11-21T04:22:13;51;50;
75946;PMS5003;64628;50.104;14.614;2023-11-21T04:24:39;41;39;
75946;PMS5003;64628;50.104;14.614;2023-11-21T04:27:04;50;50;
75946;PMS5003;64628;50.104;14.614;2023-11-21T04:29:30;34;30;
75946;PMS5003;64628;50.104;14.614;2023-11-21T04:31:55;37;37;
75946;PMS5003;64628;50.104;14.614;2023-11-21T04:34:21;63;62;
75946;PMS5003;64628;50.104;14.614;2023-11-21T04:36:46;47;45;
75946;PMS5003;64628;50.104;14.614;2023-11-21T04:39:12;31;31;
75946;PMS5003;64628;50.104;14.614;2023-11-21T04:41:37;47;42;
75946;PMS5003;64628;50.104;14.614;2023-11-21T04:44:03;58;53;
75946;PMS5003;64628;50.104;14.614;2023-11-21T04:46:28;43;41;
75946;PMS5003;64628;50.104;14.614;2023-11-21T04:48:53;40;37;
75946;PMS5003;64628;50.104;14.614;2023-11-21T04:51:19;47;42;
75946;PMS5003;64628;50.104;14.614;2023-11-21T04:53:44;57;49;
75946;PMS5003;64628;50.104;14.614;2023-11-21T04:56:09;65;53;
75946;PMS5003;64628;50.104;14.614;2023-11-21T04:58:34;62;59;
75946;PMS5003;64628;50.104;14.614;2023-11-21T05:01:00;38;31;
75946;PMS5003;64628;50.104;14.614;2023-11-21T05:03:25;37;31;
75946;PMS5003;64628;50.104;14.614;2023-11-21T05:05:50;42;42;
75946;PMS5003;64628;50.104;14.614;2023-11-21T05:08:15;23;23;
75946;PMS5003;64628;50.104;14.614;2023-11-21T05:10:40;36;34;
75946;PMS5003;64628;50.104;14.614;2023-11-21T05:13:06;34;32;
75946;PMS5003;64628;50.104;14.614;2023-11-21T05:15:31;37;36;
75946;PMS5003;64628;50.104;14.614;2023-11-21T05:17:57;41;40;
75946;PMS5003;64628;50.104;14.614;2023-11-21T05:20:22;31;31;
75946;PMS5003;64628;50.104;14.614;2023-11-21T05:22:47;43;41;
75946;PMS5003;64628;50.104;14.614;2023-11-21T05:25:13;31;31;
75946;PMS5003;64628;50.104;14.614;2023-11-21T05:27:38;32;31;
75946;PMS5003;64628;50.104;14.614;2023-11-21T05:30:03;56;52;
75946;PMS5003;64628;50.104;14.614;2023-11-21T05:32:28;33;33;
75946;PMS5003;64628;50.104;14.614;2023-11-21T05:34:53;29;29;
75946;PMS5003;64628;50.104;14.614;2023-11-21T05:37:19;40;39;
75946;PMS5003;64628;50.104;14.614;2023-11-21T05:39:44;45;43;
75946;PMS5003;64628;50.104;14.614;2023-11-21T05:42:10;36;35;
75946;PMS5003;64628;50.104;14.614;2023-11-21T05:44:35;50;50;
75946;PMS5003;64628;50.104;14.614;2023-11-21T05:47:01;38;37;
75946;PMS5003;64628;50.104;14.614;2023-11-21T05:49:26;36;35;
75946;PMS5003;64628;50.104;14.614;2023-11-21T05:51:52;32;32;
75946;PMS5003;64628;50.104;14.614;2023-11-21T05:54:17;43;41;
75946;PMS5003;64628;50.104;14.614;2023-11-21T05:56:42;37;31;
75946;PMS5003;64628;50.104;14.614;2023-11-21T05:59:07;35;34;
75946;PMS5003;64628;50.104;14.614;2023-11-21T06:01:33;36;34;
75946;PMS5003;64628;50.104;14.614;2023-11-21T06:03:58;37;36;
75946;PMS5003;64628;50.104;14.614;2023-11-21T06:06:24;34;34;
75946;PMS5003;64628;50.104;14.614;2023-11-21T06:08:49;35;35;
75946;PMS5003;64628;50.104;14.614;2023-11-21T06:11:14;41;41;
75946;PMS5003;64628;50.104;14.614;2023-11-21T06:13:40;83;80;
75946;PMS5003;64628;50.104;14.614;2023-11-21T06:16:06;66;61;
75946;PMS5003;64628;50.104;14.614;2023-11-21T06:18:31;72;72;
75946;PMS5003;64628;50.104;14.614;2023-11-21T06:20:57;83;83;
75946;PMS5003;64628;50.104;14.614;2023-11-21T06:23:22;46;42;
75946;PMS5003;64628;50.104;14.614;2023-11-21T06:25:48;38;37;
75946;PMS5003;64628;50.104;14.614;2023-11-21T06:28:13;38;37;
75946;PMS5003;64628;50.104;14.614;2023-11-21T06:30:38;36;35;
75946;PMS5003;64628;50.104;14.614;2023-11-21T06:33:04;35;35;
75946;PMS5003;64628;50.104;14.614;2023-11-21T06:35:29;25;25;
75946;PMS5003;64628;50.104;14.614;2023-11-21T06:37:55;31;26;
75946;PMS5003;64628;50.104;14.614;2023-11-21T06:40:20;41;40;
75946;PMS5003;64628;50.104;14.614;2023-11-21T06:42:47;42;42;
75946;PMS5003;64628;50.104;14.614;2023-11-21T06:45:12;66;63;
75946;PMS5003;64628;50.104;14.614;2023-11-21T06:47:38;47;38;
75946;PMS5003;64628;50.104;14.614;2023-11-21T06:50:04;36;34;
75946;PMS5003;64628;50.104;14.614;2023-11-21T06:52:29;47;42;
75946;PMS5003;64628;50.104;14.614;2023-11-21T06:54:54;32;32;
75946;PMS5003;64628;50.104;14.614;2023-11-21T06:57:20;40;36;
75946;PMS5003;64628;50.104;14.614;2023-11-21T06:59:45;43;41;
75946;PMS5003;64628;50.104;14.614;2023-11-21T07:02:10;46;43;
75946;PMS5003;64628;50.104;14.614;2023-11-21T07:04:36;46;45;
75946;PMS5003;64628;50.104;14.614;2023-11-21T07:07:01;38;36;
75946;PMS5003;64628;50.104;14.614;2023-11-21T07:09:26;40;36;
75946;PMS5003;64628;50.104;14.614;2023-11-21T07:11:52;35;32;
75946;PMS5003;64628;50.104;14.614;2023-11-21T07:14:17;42;42;
75946;PMS5003;64628;50.104;14.614;2023-11-21T07:16:43;24;24;
75946;PMS5003;64628;50.104;14.614;2023-11-21T07:19:08;43;42;
75946;PMS5003;64628;50.104;14.614;2023-11-21T07:21:33;32;30;
75946;PMS5003;64628;50.104;14.614;2023-11-21T07:23:59;41;32;
75946;PMS5003;64628;50.104;14.614;2023-11-21T07:26:24;37;33;
75946;PMS5003;64628;50.104;14.614;2023-11-21T07:28:50;48;44;
75946;PMS5003;64628;50.104;14.614;2023-11-21T07:31:16;89;76;
75946;PMS5003;64628;50.104;14.614;2023-11-21T07:33:41;82;58;
75946;PMS5003;64628;50.104;14.614;2023-11-21T07:36:07;92;67;
75946;PMS5003;64628;50.104;14.614;2023-11-21T07:38:32;53;42;
75946;PMS5003;64628;50.104;14.614;2023-11-21T07:40:58;48;39;
75946;PMS5003;64628;50.104;14.614;2023-11-21T07:43:23;30;25;
75946;PMS5003;64628;50.104;14.614;2023-11-21T07:45:48;36;32;
75946;PMS5003;64628;50.104;14.614;2023-11-21T07:48:13;12;9;
75946;PMS5003;64628;50.104;14.614;2023-11-21T07:50:38;8;6;
75946;PMS5003;64628;50.104;14.614;2023-11-21T07:53:04;7;7;
75946;PMS5003;64628;50.104;14.614;2023-11-21T07:55:30;22;20;
75946;PMS5003;64628;50.104;14.614;2023-11-21T07:57:55;22;21;
75946;PMS5003;64628;50.104;14.614;2023-11-21T08:00:20;88;88;
75946;PMS5003;64628;50.104;14.614;2023-11-21T08:02:45;28;26;
75946;PMS5003;64628;50.104;14.614;2023-11-21T08:05:11;38;37;
75946;PMS5003;64628;50.104;14.614;2023-11-21T08:07:36;8;8;
75946;PMS5003;64628;50.104;14.614;2023-11-21T08:10:01;12;8;
75946;PMS5003;64628;50.104;14.614;2023-11-21T08:12:26;10;8;
75946;PMS5003;64628;50.104;14.614;2023-11-21T08:14:52;15;10;
75946;PMS5003;64628;50.104;14.614;2023-11-21T08:17:17;13;13;
75946;PMS5003;64628;50.104;14.614;2023-11-21T08:19:42;15;11;
75946;PMS5003;64628;50.104;14.614;2023-11-21T08:22:08;71;68;
75946;PMS5003;64628;50.104;14.614;2023-11-21T08:24:34;49;48;
75946;PMS5003;64628;50.104;14.614;2023-11-21T08:26:59;24;22;
75946;PMS5003;64628;50.104;14.614;2023-11-21T08:29:24;74;73;
75946;PMS5003;64628;50.104;14.614;2023-11-21T08:31:50;20;17;
75946;PMS5003;64628;50.104;14.614;2023-11-21T08:34:15;13;11;
75946;PMS5003;64628;50.104;14.614;2023-11-21T08:36:41;22;20;
75946;PMS5003;64628;50.104;14.614;2023-11-21T08:39:05;17;15;
75946;PMS5003;64628;50.104;14.614;2023-11-21T08:41:30;48;46;
75946;PMS5003;64628;50.104;14.614;2023-11-21T08:43:55;25;23;
75946;PMS5003;64628;50.104;14.614;2023-11-21T08:46:21;42;41;
75946;PMS5003;64628;50.104;14.614;2023-11-21T08:48:46;41;41;
75946;PMS5003;64628;50.104;14.614;2023-11-21T08:51:12;10;10;
75946;PMS5003;64628;50.104;14.614;2023-11-21T08:53:38;22;21;
75946;PMS5003;64628;50.104;14.614;2023-11-21T08:56:03;20;19;
75946;PMS5003;64628;50.104;14.614;2023-11-21T08:58:28;17;15;
75946;PMS5003;64628;50.104;14.614;2023-11-21T09:00:53;15;14;
75946;PMS5003;64628;50.104;14.614;2023-11-21T09:03:19;15;14;
75946;PMS5003;64628;50.104;14.614;2023-11-21T09:05:45;19;15;
75946;PMS5003;64628;50.104;14.614;2023-11-21T09:08:10;15;11;
75946;PMS5003;64628;50.104;14.614;2023-11-21T09:10:35;20;19;
75946;PMS5003;64628;50.104;14.614;2023-11-21T09:13:00;10;8;
75946;PMS5003;64628;50.104;14.614;2023-11-21T09:15:26;16;15;
75946;PMS5003;64628;50.104;14.614;2023-11-21T09:17:51;9;9;
75946;PMS5003;64628;50.104;14.614;2023-11-21T09:20:17;10;9;
75946;PMS5003;64628;50.104;14.614;2023-11-21T09:22:42;8;7;
75946;PMS5003;64628;50.104;14.614;2023-11-21T09:25:07;8;8;
75946;PMS5003;64628;50.104;14.614;2023-11-21T09:27:32;15;8;
75946;PMS5003;64628;50.104;14.614;2023-11-21T09:29:58;15;14;
75946;PMS5003;64628;50.104;14.614;2023-11-21T09:32:24;16;16;
75946;PMS5003;64628;50.104;14.614;2023-11-21T09:34:49;9;8;
75946;PMS5003;64628;50.104;14.614;2023-11-21T09:37:14;11;11;
75946;PMS5003;64628;50.104;14.614;2023-11-21T09:39:40;8;8;
75946;PMS5003;64628;50.104;14.614;2023-11-21T09:42:07;9;9;
75946;PMS5003;64628;50.104;14.614;2023-11-21T09:44:32;10;10;
75946;PMS5003;64628;50.104;14.614;2023-11-21T09:46:56;11;9;
75946;PMS5003;64628;50.104;14.614;2023-11-21T09:51:46;13;9;
75946;PMS5003;64628;50.104;14.614;2023-11-21T09:54:13;16;10;
75946;PMS5003;64628;50.104;14.614;2023-11-21T09:56:37;22;16;
75946;PMS5003;64628;50.104;14.614;2023-11-21T09:59:03;15;10;
75946;PMS5003;64628;50.104;14.614;2023-11-21T10:01:28;14;11;
75946;PMS5003;64628;50.104;14.614;2023-11-21T10:03:55;7;7;
75946;PMS5003;64628;50.104;14.614;2023-11-21T10:06:19;14;11;
75946;PMS5003;64628;50.104;14.614;2023-11-21T10:08:45;15;14;
75946;PMS5003;64628;50.104;14.614;2023-11-21T10:11:09;7;7;
75946;PMS5003;64628;50.104;14.614;2023-11-21T10:13:35;8;7;
75946;PMS5003;64628;50.104;14.614;2023-11-21T10:16:00;10;10;
75946;PMS5003;64628;50.104;14.614;2023-11-21T10:18:25;10;10;
75946;PMS5003;64628;50.104;14.614;2023-11-21T10:20:50;11;9;
75946;PMS5003;64628;50.104;14.614;2023-11-21T10:23:16;9;8;
75946;PMS5003;64628;50.104;14.614;2023-11-21T10:25:41;14;14;
75946;PMS5003;64628;50.104;14.614;2023-11-21T10:28:06;11;10;
75946;PMS5003;64628;50.104;14.614;2023-11-21T10:30:32;10;9;
75946;PMS5003;64628;50.104;14.614;2023-11-21T10:32:58;10;9;
75946;PMS5003;64628;50.104;14.614;2023-11-21T10:35:21;15;14;
75946;PMS5003;64628;50.104;14.614;2023-11-21T10:37:47;11;10;
75946;PMS5003;64628;50.104;14.614;2023-11-21T10:40:12;15;15;
75946;PMS5003;64628;50.104;14.614;2023-11-21T10:42:37;14;11;
75946;PMS5003;64628;50.104;14.614;2023-11-21T10:45:03;14;10;
75946;PMS5003;64628;50.104;14.614;2023-11-21T10:47:28;14;11;
75946;PMS5003;64628;50.104;14.614;2023-11-21T10:49:53;17;10;
75946;PMS5003;64628;50.104;14.614;2023-11-21T10:52:19;9;9;
75946;PMS5003;64628;50.104;14.614;2023-11-21T10:54:45;19;17;
75946;PMS5003;64628;50.104;14.614;2023-11-21T10:57:10;10;10;
75946;PMS5003;64628;50.104;14.614;2023-11-21T10:59:35;14;10;
75946;PMS5003;64628;50.104;14.614;2023-11-21T11:02:01;15;11;
75946;PMS5003;64628;50.104;14.614;2023-11-21T11:04:27;10;10;
75946;PMS5003;64628;50.104;14.614;2023-11-21T11:06:54;23;19;
75946;PMS5003;64628;50.104;14.614;2023-11-21T11:09:18;11;10;
75946;PMS5003;64628;50.104;14.614;2023-11-21T11:11:43;11;9;
75946;PMS5003;64628;50.104;14.614;2023-11-21T11:14:09;24;18;
75946;PMS5003;64628;50.104;14.614;2023-11-21T11:16:34;26;18;
75946;PMS5003;64628;50.104;14.614;2023-11-21T11:19:00;24;18;
75946;PMS5003;64628;50.104;14.614;2023-11-21T11:21:25;32;26;
75946;PMS5003;64628;50.104;14.614;2023-11-21T11:23:55;17;16;
75946;PMS5003;64628;50.104;14.614;2023-11-21T11:26:20;23;22;
75946;PMS5003;64628;50.104;14.614;2023-11-21T11:28:44;14;11;
75946;PMS5003;64628;50.104;14.614;2023-11-21T11:31:10;14;13;
75946;PMS5003;64628;50.104;14.614;2023-11-21T11:33:35;12;10;
75946;PMS5003;64628;50.104;14.614;2023-11-21T11:36:00;11;11;
75946;PMS5003;64628;50.104;14.614;2023-11-21T11:38:24;13;9;
75946;PMS5003;64628;50.104;14.614;2023-11-21T11:40:52;12;11;
75946;PMS5003;64628;50.104;14.614;2023-11-21T11:43:16;10;9;
75946;PMS5003;64628;50.104;14.614;2023-11-21T11:45:40;17;13;
75946;PMS5003;64628;50.104;14.614;2023-11-21T11:48:05;23;16;
75946;PMS5003;64628;50.104;14.614;2023-11-21T11:50:31;25;19;
75946;PMS5003;64628;50.104;14.614;2023-11-21T11:53:11;15;11;
75946;PMS5003;64628;50.104;14.614;2023-11-21T11:55:22;15;14;
75946;PMS5003;64628;50.104;14.614;2023-11-21T11:57:48;22;17;
75946;PMS5003;64628;50.104;14.614;2023-11-21T12:00:14;17;11;
75946;PMS5003;64628;50.104;14.614;2023-11-21T12:02:39;12;8;
75946;PMS5003;64628;50.104;14.614;2023-11-21T12:05:08;18;15;
75946;PMS5003;64628;50.104;14.614;2023-11-21T12:09:55;18;15;
75946;PMS5003;64628;50.104;14.614;2023-11-21T12:12:22;10;9;
75946;PMS5003;64628;50.104;14.614;2023-11-21T12:14:46;8;8;
75946;PMS5003;64628;50.104;14.614;2023-11-21T12:17:11;17;16;
75946;PMS5003;64628;50.104;14.614;2023-11-21T12:19:36;10;9;
75946;PMS5003;64628;50.104;14.614;2023-11-21T12:22:02;16;12;
75946;PMS5003;64628;50.104;14.614;2023-11-21T12:24:27;16;14;
75946;PMS5003;64628;50.104;14.614;2023-11-21T12:26:53;13;11;
75946;PMS5003;64628;50.104;14.614;2023-11-21T12:29:18;8;8;
75946;PMS5003;64628;50.104;14.614;2023-11-21T12:31:43;11;10;
75946;PMS5003;64628;50.104;14.614;2023-11-21T12:34:09;17;13;
75946;PMS5003;64628;50.104;14.614;2023-11-21T12:36:34;10;9;
75946;PMS5003;64628;50.104;14.614;2023-11-21T12:39:00;10;9;
75946;PMS5003;64628;50.104;14.614;2023-11-21T12:41:25;9;9;
75946;PMS5003;64628;50.104;14.614;2023-11-21T12:43:51;14;11;
75946;PMS5003;64628;50.104;14.614;2023-11-21T12:46:16;13;11;
75946;PMS5003;64628;50.104;14.614;2023-11-21T12:48:43;11;11;
75946;PMS5003;64628;50.104;14.614;2023-11-21T12:51:07;17;15;
75946;PMS5003;64628;50.104;14.614;2023-11-21T12:53:32;32;23;
75946;PMS5003;64628;50.104;14.614;2023-11-21T12:55:57;30;26;
75946;PMS5003;64628;50.104;14.614;2023-11-21T12:58:23;21;14;
75946;PMS5003;64628;50.104;14.614;2023-11-21T13:00:48;27;22;
75946;PMS5003;64628;50.104;14.614;2023-11-21T13:03:14;26;21;
75946;PMS5003;64628;50.104;14.614;2023-11-21T13:05:39;29;23;
75946;PMS5003;64628;50.104;14.614;2023-11-21T13:08:05;23;22;
75946;PMS5003;64628;50.104;14.614;2023-11-21T13:10:30;16;11;
75946;PMS5003;64628;50.104;14.614;2023-11-21T13:12:55;21;16;
75946;PMS5003;64628;50.104;14.614;2023-11-21T13:15:20;20;20;
75946;PMS5003;64628;50.104;14.614;2023-11-21T13:17:45;17;15;
75946;PMS5003;64628;50.104;14.614;2023-11-21T13:20:11;26;20;
75946;PMS5003;64628;50.104;14.614;2023-11-21T13:22:36;19;17;
75946;PMS5003;64628;50.104;14.614;2023-11-21T13:25:02;16;16;
75946;PMS5003;64628;50.104;14.614;2023-11-21T13:27:27;54;50;
75946;PMS5003;64628;50.104;14.614;2023-11-21T13:29:52;18;15;
75946;PMS5003;64628;50.104;14.614;2023-11-21T13:32:18;18;13;
75946;PMS5003;64628;50.104;14.614;2023-11-21T13:34:43;16;15;
75946;PMS5003;64628;50.104;14.614;2023-11-21T13:37:09;20;15;
75946;PMS5003;64628;50.104;14.614;2023-11-21T13:39:34;19;17;
75946;PMS5003;64628;50.104;14.614;2023-11-21T13:41:59;20;16;
75946;PMS5003;64628;50.104;14.614;2023-11-21T13:44:25;20;13;
75946;PMS5003;64628;50.104;14.614;2023-11-21T13:46:50;24;20;
75946;PMS5003;64628;50.104;14.614;2023-11-21T13:49:15;48;38;
75946;PMS5003;64628;50.104;14.614;2023-11-21T13:51:40;35;31;
75946;PMS5003;64628;50.104;14.614;2023-11-21T13:54:06;65;46;
75946;PMS5003;64628;50.104;14.614;2023-11-21T13:56:32;75;69;
75946;PMS5003;64628;50.104;14.614;2023-11-21T13:58:58;83;65;
75946;PMS5003;64628;50.104;14.614;2023-11-21T14:01:24;54;53;
75946;PMS5003;64628;50.104;14.614;2023-11-21T14:03:49;57;51;
75946;PMS5003;64628;50.104;14.614;2023-11-21T14:06:15;47;42;
75946;PMS5003;64628;50.104;14.614;2023-11-21T14:08:40;41;40;
75946;PMS5003;64628;50.104;14.614;2023-11-21T14:11:06;53;50;
75946;PMS5003;64628;50.104;14.614;2023-11-21T14:13:32;45;40;
75946;PMS5003;64628;50.104;14.614;2023-11-21T14:15:57;55;54;
75946;PMS5003;64628;50.104;14.614;2023-11-21T14:18:23;53;51;
75946;PMS5003;64628;50.104;14.614;2023-11-21T14:20:49;60;52;
75946;PMS5003;64628;50.104;14.614;2023-11-21T14:23:14;62;59;
75946;PMS5003;64628;50.104;14.614;2023-11-21T14:25:39;29;25;
75946;PMS5003;64628;50.104;14.614;2023-11-21T14:28:05;33;24;
75946;PMS5003;64628;50.104;14.614;2023-11-21T14:30:30;29;24;
75946;PMS5003;64628;50.104;14.614;2023-11-21T14:32:56;62;58;
75946;PMS5003;64628;50.104;14.614;2023-11-21T14:35:21;34;31;
75946;PMS5003;64628;50.104;14.614;2023-11-21T14:37:47;136;131;
75946;PMS5003;64628;50.104;14.614;2023-11-21T14:40:13;54;50;
75946;PMS5003;64628;50.104;14.614;2023-11-21T14:42:38;26;22;
75946;PMS5003;64628;50.104;14.614;2023-11-21T14:45:04;34;30;
75946;PMS5003;64628;50.104;14.614;2023-11-21T14:47:29;44;41;
75946;PMS5003;64628;50.104;14.614;2023-11-21T14:49:55;50;49;
75946;PMS5003;64628;50.104;14.614;2023-11-21T14:52:20;59;51;
75946;PMS5003;64628;50.104;14.614;2023-11-21T14:54:46;60;56;
75946;PMS5003;64628;50.104;14.614;2023-11-21T14:57:12;36;32;
75946;PMS5003;64628;50.104;14.614;2023-11-21T14:59:37;39;37;
75946;PMS5003;64628;50.104;14.614;2023-11-21T15:02:01;38;34;
75946;PMS5003;64628;50.104;14.614;2023-11-21T15:04:27;40;38;
75946;PMS5003;64628;50.104;14.614;2023-11-21T15:06:52;42;38;
75946;PMS5003;64628;50.104;14.614;2023-11-21T15:09:18;67;57;
75946;PMS5003;64628;50.104;14.614;2023-11-21T15:11:44;50;40;
75946;PMS5003;64628;50.104;14.614;2023-11-21T15:14:09;48;44;
75946;PMS5003;64628;50.104;14.614;2023-11-21T15:16:35;57;52;
75946;PMS5003;64628;50.104;14.614;2023-11-21T15:19:00;52;43;
75946;PMS5003;64628;50.104;14.614;2023-11-21T15:21:26;32;32;
75946;PMS5003;64628;50.104;14.614;2023-11-21T15:23:51;36;34;
75946;PMS5003;64628;50.104;14.614;2023-11-21T15:26:17;43;42;
75946;PMS5003;64628;50.104;14.614;2023-11-21T15:28:42;38;37;
75946;PMS5003;64628;50.104;14.614;2023-11-21T15:31:07;43;43;
75946;PMS5003;64628;50.104;14.614;2023-11-21T15:33:33;48;46;
75946;PMS5003;64628;50.104;14.614;2023-11-21T15:35:58;51;51;
75946;PMS5003;64628;50.104;14.614;2023-11-21T15:38:24;49;48;
75946;PMS5003;64628;50.104;14.614;2023-11-21T15:40:49;62;61;
75946;PMS5003;64628;50.104;14.614;2023-11-21T15:43:15;73;71;
75946;PMS5003;64628;50.104;14.614;2023-11-21T15:45:41;73;69;
75946;PMS5003;64628;50.104;14.614;2023-11-21T15:48:06;72;70;
75946;PMS5003;64628;50.104;14.614;2023-11-21T15:50:32;93;91;
75946;PMS5003;64628;50.104;14.614;2023-11-21T15:52:58;81;79;
75946;PMS5003;64628;50.104;14.614;2023-11-21T15:55:23;114;112;